createdAt,value
2017-04-15T00:00:40.703Z,94.59
2017-04-15T00:01:53.180Z,94.78
2017-04-15T00:03:06.656Z,95.07
2017-04-15T00:04:19.552Z,94.59
2017-04-15T00:05:32.645Z,94.78
2017-04-15T00:06:45.075Z,95.45
2017-04-15T00:07:57.945Z,94.68
2017-04-15T00:09:10.361Z,94.87
2017-04-15T00:10:23.599Z,94.87
2017-04-15T00:11:36.476Z,94.97
2017-04-15T00:12:49.386Z,94.68
2017-04-15T00:14:02.248Z,94.39
2017-04-15T00:15:15.256Z,94.59
2017-04-15T00:16:28.532Z,94.68
2017-04-15T00:17:41.414Z,94.68
2017-04-15T00:18:54.300Z,94.39
2017-04-15T00:20:07.176Z,94.49
2017-04-15T00:21:20.049Z,94.78
2017-04-15T00:22:32.928Z,94.78
2017-04-15T00:23:45.330Z,95.36
2017-04-15T00:24:58.234Z,94.87
2017-04-15T00:26:11.125Z,94.78
2017-04-15T00:27:24.206Z,95.26
2017-04-15T00:28:37.104Z,94.97
2017-04-15T00:29:49.997Z,95.45
2017-04-15T00:31:03.082Z,95.07
2017-04-15T00:32:15.972Z,94.78
2017-04-15T00:33:28.841Z,94.49
2017-04-15T00:34:41.721Z,94.49
2017-04-15T00:35:53.126Z,94.97
2017-04-15T00:37:05.991Z,94.1
2017-04-15T00:38:18.888Z,94.29
2017-04-15T00:39:31.783Z,94.29
2017-04-15T00:40:44.680Z,94.39
2017-04-15T00:41:57.561Z,94.2
2017-04-15T00:43:10.442Z,94.39
2017-04-15T00:44:23.472Z,94.59
2017-04-15T00:45:36.350Z,94.1
2017-04-15T00:46:49.448Z,94.49
2017-04-15T00:48:02.346Z,93.29
2017-04-15T00:49:14.945Z,93.48
2017-04-15T00:50:27.857Z,93.52
2017-04-15T00:51:40.735Z,93.43
2017-04-15T00:52:53.615Z,94.01
2017-04-15T00:54:06.506Z,93.62
2017-04-15T00:55:19.389Z,93.72
2017-04-15T00:56:32.279Z,93.72
2017-04-15T00:57:45.179Z,93.43
2017-04-15T00:58:58.081Z,93.72
2017-04-15T01:00:11.194Z,94.25
2017-04-15T01:01:24.091Z,94.06
2017-04-15T01:02:36.996Z,93.96
2017-04-15T01:03:49.885Z,93.87
2017-04-15T01:05:02.763Z,93.96
2017-04-15T01:06:15.653Z,94.15
2017-04-15T01:07:28.042Z,94.15
2017-04-15T01:08:40.931Z,93.77
2017-04-15T01:09:53.827Z,94.34
2017-04-15T01:11:06.245Z,94.34
2017-04-15T01:12:19.130Z,94.54
2017-04-15T01:13:32.010Z,94.06
2017-04-15T01:14:44.895Z,94.06
2017-04-15T01:15:57.759Z,94.15
2017-04-15T01:17:10.654Z,94.15
2017-04-15T01:18:23.547Z,94.25
2017-04-15T01:19:36.442Z,94.92
2017-04-15T01:20:49.316Z,94.82
2017-04-15T01:22:02.194Z,94.54
2017-04-15T01:23:15.082Z,94.44
2017-04-15T01:24:27.949Z,95.4
2017-04-15T01:25:40.345Z,94.92
2017-04-15T01:26:53.233Z,94.92
2017-04-15T01:28:06.102Z,95.69
2017-04-15T01:29:18.474Z,95.79
2017-04-15T01:30:31.341Z,95.6
2017-04-15T01:31:44.221Z,95.98
2017-04-15T01:32:57.910Z,95.79
2017-04-15T01:34:10.778Z,96.27
2017-04-15T01:35:23.652Z,95.65
2017-04-15T01:36:36.515Z,96.32
2017-04-15T01:37:48.912Z,96.51
2017-04-15T01:39:01.329Z,96.51
2017-04-15T01:40:14.208Z,96.51
2017-04-15T01:41:27.082Z,96.7
2017-04-15T01:42:39.982Z,96.51
2017-04-15T01:44:06.921Z,96.7
2017-04-15T01:45:19.316Z,96.7
2017-04-15T01:46:32.188Z,96.51
2017-04-15T01:47:45.073Z,96.22
2017-04-15T01:48:57.966Z,96.51
2017-04-15T01:50:10.866Z,96.32
2017-04-15T01:51:23.747Z,96.12
2017-04-15T01:52:36.622Z,96.03
2017-04-15T01:53:49.510Z,96.22
2017-04-15T01:55:02.414Z,96.51
2017-04-15T01:56:15.356Z,96.89
2017-04-15T01:57:28.291Z,96.7
2017-04-15T01:58:41.204Z,96.89
2017-04-15T01:59:54.295Z,96.89
2017-04-15T02:01:07.162Z,96.99
2017-04-15T02:02:20.040Z,96.89
2017-04-15T02:03:32.927Z,96.89
2017-04-15T02:04:45.825Z,96.8
2017-04-15T02:05:58.888Z,96.7
2017-04-15T02:07:11.772Z,96.89
2017-04-15T02:08:24.662Z,96.61
2017-04-15T02:09:37.555Z,97.09
2017-04-15T02:10:50.715Z,97.38
2017-04-15T02:12:03.590Z,97.38
2017-04-15T02:13:15.953Z,96.99
2017-04-15T02:14:28.846Z,97.28
2017-04-15T02:15:41.719Z,97.38
2017-04-15T02:16:54.598Z,97.47
2017-04-15T02:18:07.477Z,97.38
2017-04-15T02:19:20.344Z,97.47
2017-04-15T02:20:33.226Z,97.28
2017-04-15T02:21:46.104Z,97.19
2017-04-15T02:22:58.985Z,97.38
2017-04-15T02:24:11.876Z,97.47
2017-04-15T02:25:24.764Z,97.28
2017-04-15T02:26:37.739Z,97.67
2017-04-15T02:27:50.838Z,97.96
2017-04-15T02:29:03.721Z,97.86
2017-04-15T02:30:16.594Z,98.72
2017-04-15T02:31:29.466Z,98.05
2017-04-15T02:32:42.329Z,98.34
2017-04-15T02:33:54.663Z,98.49
2017-04-15T02:35:07.400Z,98.44
2017-04-15T02:36:20.160Z,98.44
2017-04-15T02:37:32.910Z,98.24
2017-04-15T02:38:45.836Z,98.34
2017-04-15T02:39:58.578Z,98.1
2017-04-15T02:41:11.973Z,98.44
2017-04-15T02:42:24.259Z,98.34
2017-04-15T02:43:37.427Z,98.44
2017-04-15T02:44:50.166Z,98.39
2017-04-15T02:46:02.460Z,98.14
2017-04-15T02:47:15.189Z,98.63
2017-04-15T02:48:27.927Z,98.44
2017-04-15T02:49:40.666Z,98.68
2017-04-15T02:50:53.407Z,98.87
2017-04-15T02:52:06.350Z,99.16
2017-04-15T02:53:19.097Z,99.35
2017-04-15T02:54:31.380Z,98.77
2017-04-15T02:55:44.099Z,98.68
2017-04-15T02:56:57.064Z,98.96
2017-04-15T02:58:10.052Z,98.87
2017-04-15T02:59:22.768Z,98.87
2017-04-15T03:00:35.721Z,98.58
2017-04-15T03:01:48.471Z,99.06
2017-04-15T03:03:01.232Z,99.44
2017-04-15T03:04:13.973Z,98.77
2017-04-15T03:05:27.026Z,98.77
2017-04-15T03:06:39.775Z,99.06
2017-04-15T03:07:52.510Z,99.44
2017-04-15T03:09:05.434Z,99.99
2017-04-15T03:10:17.680Z,99.93
2017-04-15T03:11:30.431Z,99.26
2017-04-15T03:12:43.174Z,99.99
2017-04-15T03:13:56.511Z,98.96
2017-04-15T03:15:09.285Z,99.44
2017-04-15T03:16:22.039Z,99.54
2017-04-15T03:17:34.778Z,99.26
2017-04-15T03:18:47.567Z,99.44
2017-04-15T03:20:00.665Z,99.44
2017-04-15T03:21:12.583Z,99.35
2017-04-15T03:22:25.646Z,99.06
2017-04-15T03:23:38.719Z,99.73
2017-04-15T03:24:51.087Z,99.99
2017-04-15T03:26:03.973Z,99.99
2017-04-15T03:27:16.815Z,99.99
2017-04-15T03:28:30.008Z,99.99
2017-04-15T03:29:43.099Z,99.73
2017-04-15T03:30:56.001Z,99.99
2017-04-15T03:32:08.396Z,99.99
2017-04-15T03:33:21.477Z,99.73
2017-04-15T03:34:34.337Z,99.73
2017-04-15T03:35:47.197Z,99.99
2017-04-15T03:37:00.059Z,99.83
2017-04-15T03:39:52.929Z,99.99
2017-04-15T03:41:05.315Z,99.99
2017-04-15T03:42:18.191Z,99.99
2017-04-15T03:43:31.089Z,99.99
2017-04-15T03:44:43.978Z,99.99
2017-04-15T03:45:56.835Z,99.99
2017-04-15T03:47:09.694Z,99.99
2017-04-15T03:48:22.579Z,99.99
2017-04-15T03:49:35.656Z,99.99
2017-04-15T03:50:48.530Z,99.99
2017-04-15T03:52:01.380Z,99.99
2017-04-15T03:53:14.257Z,99.99
2017-04-15T03:54:27.176Z,99.99
2017-04-15T03:55:40.121Z,99.99
2017-04-15T03:56:52.502Z,99.99
2017-04-15T03:58:05.368Z,99.99
2017-04-15T03:59:18.234Z,99.99
2017-04-15T04:00:31.288Z,99.99
2017-04-15T04:01:43.675Z,99.99
2017-04-15T04:02:56.541Z,99.99
2017-04-15T04:04:09.370Z,99.99
2017-04-15T04:05:22.391Z,99.99
2017-04-15T04:06:34.668Z,99.99
2017-04-15T04:07:47.404Z,99.99
2017-04-15T04:09:00.123Z,99.99
2017-04-15T04:10:12.887Z,99.99
2017-04-15T04:11:25.697Z,99.99
2017-04-15T04:12:38.522Z,99.99
2017-04-15T04:13:51.245Z,99.99
2017-04-15T04:15:03.489Z,99.99
2017-04-15T04:16:16.205Z,99.99
2017-04-15T04:17:29.739Z,99.99
2017-04-15T04:18:42.480Z,99.99
2017-04-15T04:19:55.203Z,99.99
2017-04-15T04:21:07.939Z,99.99
2017-04-15T04:22:20.180Z,99.99
2017-04-15T04:23:32.901Z,99.99
2017-04-15T04:24:45.618Z,99.99
2017-04-15T04:25:57.846Z,99.99
2017-04-15T04:27:10.671Z,99.99
2017-04-15T04:28:23.390Z,99.99
2017-04-15T04:29:35.621Z,99.99
2017-04-15T04:30:48.338Z,99.99
2017-04-15T04:32:01.042Z,99.99
2017-04-15T04:33:14.059Z,99.99
2017-04-15T04:34:26.787Z,99.99
2017-04-15T04:35:39.505Z,99.99
2017-04-15T04:36:52.212Z,99.99
2017-04-15T04:38:05.264Z,99.99
2017-04-15T04:39:17.969Z,99.99
2017-04-15T04:40:30.199Z,99.99
2017-04-15T04:41:42.922Z,99.99
2017-04-15T04:42:55.636Z,99.99
2017-04-15T04:44:08.538Z,99.99
2017-04-15T04:45:21.522Z,99.99
2017-04-15T04:46:34.213Z,99.99
2017-04-15T04:47:46.906Z,99.99
2017-04-15T04:48:59.434Z,99.99
2017-04-15T04:50:11.663Z,99.99
2017-04-15T04:51:24.375Z,99.99
2017-04-15T04:52:36.593Z,99.99
2017-04-15T04:53:49.280Z,99.99
2017-04-15T04:55:01.976Z,99.99
2017-04-15T04:56:14.673Z,99.99
2017-04-15T04:57:27.364Z,99.99
2017-04-15T04:58:40.075Z,99.99
2017-04-15T04:59:53.075Z,99.99
2017-04-15T05:01:05.811Z,99.99
2017-04-15T05:02:18.495Z,99.99
2017-04-15T05:03:31.199Z,99.99
2017-04-15T05:04:43.891Z,99.99
2017-04-15T05:05:56.580Z,99.99
2017-04-15T05:07:09.272Z,99.99
2017-04-15T05:08:21.482Z,99.99
2017-04-15T05:09:34.168Z,99.99
2017-04-15T05:10:46.850Z,99.99
2017-04-15T05:11:59.556Z,99.99
2017-04-15T05:13:12.251Z,99.99
2017-04-15T05:14:24.941Z,99.99
2017-04-15T05:15:37.656Z,99.99
2017-04-15T05:16:50.636Z,99.99
2017-04-15T05:18:02.842Z,99.99
2017-04-15T05:19:15.529Z,99.99
2017-04-15T05:20:28.455Z,99.99
2017-04-15T05:21:40.666Z,99.99
2017-04-15T05:22:53.355Z,99.99
2017-04-15T05:24:06.046Z,99.99
2017-04-15T05:25:18.735Z,99.99
2017-04-15T05:26:31.419Z,99.99
2017-04-15T05:27:44.404Z,99.99
2017-04-15T05:28:57.091Z,99.99
2017-04-15T05:30:09.307Z,99.99
2017-04-15T05:31:21.993Z,99.99
2017-04-15T05:32:34.879Z,99.99
2017-04-15T05:33:47.585Z,99.99
2017-04-15T05:35:00.269Z,99.99
2017-04-15T05:36:12.473Z,99.99
2017-04-15T05:37:25.160Z,99.99
2017-04-15T05:38:38.232Z,99.99
2017-04-15T05:39:50.922Z,99.99
2017-04-15T05:41:03.640Z,99.99
2017-04-15T05:42:16.325Z,99.99
2017-04-15T05:43:29.324Z,99.99
2017-04-15T05:44:42.017Z,99.99
2017-04-15T05:45:54.697Z,99.99
2017-04-15T05:47:06.909Z,99.99
2017-04-15T05:48:19.593Z,99.99
2017-04-15T05:49:32.279Z,99.99
2017-04-15T05:50:44.965Z,99.99
2017-04-15T05:51:57.648Z,99.99
2017-04-15T05:53:09.856Z,99.99
2017-04-15T05:54:22.544Z,99.99
2017-04-15T05:55:35.234Z,99.99
2017-04-15T05:56:47.921Z,99.99
2017-04-15T05:58:00.622Z,99.99
2017-04-15T05:59:12.841Z,99.99
2017-04-15T06:00:25.723Z,99.99
2017-04-15T06:01:38.583Z,99.99
2017-04-15T06:02:51.269Z,99.99
2017-04-15T06:04:03.954Z,99.99
2017-04-15T06:05:16.640Z,99.99
2017-04-15T06:06:29.323Z,99.99
2017-04-15T06:07:42.010Z,99.99
2017-04-15T06:08:54.692Z,99.73
2017-04-15T06:10:07.374Z,99.93
2017-04-15T06:11:20.259Z,99.99
2017-04-15T06:12:32.944Z,99.99
2017-04-15T06:13:45.156Z,99.99
2017-04-15T06:14:57.868Z,99.54
2017-04-15T06:16:10.570Z,99.73
2017-04-15T06:17:22.781Z,99.73
2017-04-15T06:18:35.529Z,99.99
2017-04-15T06:19:48.558Z,99.93
2017-04-15T06:21:01.398Z,99.83
2017-04-15T06:22:14.216Z,99.64
2017-04-15T06:23:27.043Z,99.93
2017-04-15T06:24:39.875Z,99.99
2017-04-15T06:25:52.700Z,99.99
2017-04-15T06:27:05.820Z,99.73
2017-04-15T06:28:18.637Z,99.93
2017-04-15T06:29:30.976Z,99.54
2017-04-15T06:30:43.798Z,99.83
2017-04-15T06:31:56.619Z,99.64
2017-04-15T06:33:09.646Z,99.83
2017-04-15T06:34:22.472Z,99.99
2017-04-15T06:35:35.313Z,99.99
2017-04-15T06:36:48.130Z,99.99
2017-04-15T06:38:01.298Z,99.99
2017-04-15T06:39:13.888Z,99.99
2017-04-15T06:40:26.949Z,99.99
2017-04-15T06:41:39.286Z,99.99
2017-04-15T06:42:52.115Z,99.99
2017-04-15T06:44:04.659Z,99.99
2017-04-15T06:45:17.483Z,99.99
2017-04-15T06:46:30.305Z,99.99
2017-04-15T06:47:42.642Z,99.99
2017-04-15T06:48:55.670Z,99.99
2017-04-15T06:50:08.498Z,99.54
2017-04-15T06:51:21.324Z,99.99
2017-04-15T06:52:34.149Z,99.64
2017-04-15T06:53:46.980Z,99.99
2017-04-15T06:54:59.807Z,99.54
2017-04-15T06:56:12.141Z,99.99
2017-04-15T06:57:24.965Z,99.99
2017-04-15T06:58:37.793Z,99.99
2017-04-15T06:59:50.918Z,99.99
2017-04-15T07:01:03.906Z,99.99
2017-04-15T07:02:16.728Z,99.99
2017-04-15T07:03:29.509Z,99.99
2017-04-15T07:04:42.220Z,99.99
2017-04-15T07:05:54.906Z,99.99
2017-04-15T07:07:07.117Z,99.99
2017-04-15T07:08:19.807Z,99.99
2017-04-15T07:09:32.518Z,99.99
2017-04-15T07:10:44.926Z,99.99
2017-04-15T07:11:57.607Z,99.99
2017-04-15T07:13:10.302Z,99.99
2017-04-15T07:14:22.528Z,99.99
2017-04-15T07:15:35.219Z,99.99
2017-04-15T07:16:47.921Z,99.99
2017-04-15T07:18:00.607Z,99.99
2017-04-15T07:19:13.296Z,99.99
2017-04-15T07:20:25.989Z,99.99
2017-04-15T07:21:38.679Z,99.99
2017-04-15T07:22:51.367Z,99.99
2017-04-15T07:24:04.059Z,99.99
2017-04-15T07:25:16.274Z,99.99
2017-04-15T07:26:28.956Z,99.99
2017-04-15T07:27:41.838Z,99.93
2017-04-15T07:28:54.527Z,99.99
2017-04-15T07:30:07.211Z,99.99
2017-04-15T07:31:19.912Z,99.99
2017-04-15T07:32:32.895Z,99.99
2017-04-15T07:33:45.582Z,99.99
2017-04-15T07:34:58.271Z,99.99
2017-04-15T07:36:10.959Z,99.99
2017-04-15T07:37:23.652Z,99.73
2017-04-15T07:38:36.540Z,99.99
2017-04-15T07:39:49.229Z,99.99
2017-04-15T07:41:02.026Z,99.99
2017-04-15T07:42:14.708Z,99.93
2017-04-15T07:43:27.388Z,99.99
2017-04-15T07:44:40.075Z,99.93
2017-04-15T07:45:52.290Z,99.99
2017-04-15T07:47:04.975Z,99.99
2017-04-15T07:48:17.189Z,99.54
2017-04-15T07:49:30.182Z,99.99
2017-04-15T07:50:42.866Z,99.44
2017-04-15T07:51:55.548Z,99.93
2017-04-15T07:53:08.230Z,99.73
2017-04-15T07:54:20.444Z,99.73
2017-04-15T07:55:33.131Z,99.64
2017-04-15T07:56:45.814Z,99.54
2017-04-15T07:57:58.495Z,99.93
2017-04-15T07:59:10.708Z,99.93
2017-04-15T08:00:23.392Z,99.73
2017-04-15T08:01:35.604Z,99.93
2017-04-15T08:02:47.815Z,99.99
2017-04-15T08:04:00.500Z,99.93
2017-04-15T08:05:13.190Z,99.83
2017-04-15T08:06:25.886Z,99.83
2017-04-15T08:07:38.576Z,99.99
2017-04-15T08:08:51.272Z,99.73
2017-04-15T08:10:03.964Z,99.99
2017-04-15T08:11:16.648Z,99.99
2017-04-15T08:12:29.329Z,99.73
2017-04-15T08:13:42.021Z,99.73
2017-04-15T08:14:54.705Z,99.93
2017-04-15T08:16:07.390Z,99.83
2017-04-15T08:17:20.079Z,99.99
2017-04-15T08:18:32.857Z,99.83
2017-04-15T08:19:45.702Z,99.83
2017-04-15T08:20:58.386Z,99.93
2017-04-15T08:22:11.373Z,99.99
2017-04-15T08:23:24.059Z,99.99
2017-04-15T08:24:36.747Z,99.93
2017-04-15T08:25:49.433Z,99.93
2017-04-15T08:27:02.421Z,99.99
2017-04-15T08:28:15.105Z,99.99
2017-04-15T08:29:27.790Z,99.64
2017-04-15T08:30:40.484Z,99.83
2017-04-15T08:31:53.173Z,99.83
2017-04-15T08:33:05.698Z,99.99
2017-04-15T08:34:18.477Z,99.83
2017-04-15T08:35:30.329Z,99.73
2017-04-15T08:36:43.147Z,99.73
2017-04-15T08:37:55.970Z,99.73
2017-04-15T08:39:08.795Z,99.99
2017-04-15T08:40:21.616Z,99.99
2017-04-15T08:41:34.435Z,99.73
2017-04-15T08:42:47.259Z,99.99
2017-04-15T08:44:00.089Z,99.64
2017-04-15T08:45:12.913Z,99.83
2017-04-15T08:46:25.747Z,99.99
2017-04-15T08:47:38.567Z,99.99
2017-04-15T08:48:51.585Z,99.99
2017-04-15T08:50:04.407Z,99.99
2017-04-15T08:51:17.226Z,99.99
2017-04-15T08:52:29.562Z,99.99
2017-04-15T08:53:42.387Z,99.99
2017-04-15T08:54:55.572Z,99.99
2017-04-15T08:56:08.389Z,99.99
2017-04-15T08:57:20.828Z,99.73
2017-04-15T08:58:33.654Z,99.99
2017-04-15T08:59:46.473Z,99.73
2017-04-15T09:00:59.307Z,99.54
2017-04-15T09:02:11.644Z,99.99
2017-04-15T09:03:24.465Z,99.99
2017-04-15T09:04:37.288Z,99.83
2017-04-15T09:05:50.411Z,99.99
2017-04-15T09:07:03.232Z,99.83
2017-04-15T09:08:15.569Z,99.73
2017-04-15T09:09:28.390Z,99.93
2017-04-15T09:10:41.514Z,99.54
2017-04-15T09:11:54.346Z,99.64
2017-04-15T09:13:07.317Z,99.93
2017-04-15T09:14:20.162Z,99.99
2017-04-15T09:15:32.987Z,99.44
2017-04-15T09:16:59.869Z,99.83
2017-04-15T09:18:12.671Z,99.01
2017-04-15T09:19:25.360Z,99.4
2017-04-15T09:20:38.047Z,99.11
2017-04-15T09:21:50.741Z,99.59
2017-04-15T09:23:03.425Z,99.4
2017-04-15T09:24:16.112Z,99.21
2017-04-15T09:25:28.800Z,99.4
2017-04-15T09:26:41.215Z,99.4
2017-04-15T09:27:53.902Z,99.49
2017-04-15T09:29:06.583Z,99.3
2017-04-15T09:30:18.795Z,99.99
2017-04-15T09:31:31.479Z,99.83
2017-04-15T09:32:44.375Z,99.93
2017-04-15T09:33:57.061Z,99.54
2017-04-15T09:35:09.747Z,99.69
2017-04-15T09:36:22.428Z,99.78
2017-04-15T09:37:35.115Z,99.59
2017-04-15T09:38:47.807Z,99.98
2017-04-15T09:40:00.489Z,99.98
2017-04-15T09:41:12.223Z,99.59
2017-04-15T09:42:24.907Z,99.98
2017-04-15T09:43:37.810Z,99.88
2017-04-15T09:44:50.493Z,99.3
2017-04-15T09:46:03.184Z,99.3
2017-04-15T09:47:15.402Z,99.01
2017-04-15T09:48:28.085Z,99.4
2017-04-15T09:49:40.777Z,99.21
2017-04-15T09:50:53.461Z,99.98
2017-04-15T09:52:06.145Z,99.88
2017-04-15T09:53:18.824Z,99.3
2017-04-15T09:54:31.812Z,99.4
2017-04-15T09:55:44.494Z,99.59
2017-04-15T09:56:57.184Z,99.01
2017-04-15T09:58:09.882Z,99.01
2017-04-15T09:59:22.773Z,99.11
2017-04-15T10:00:35.467Z,99.01
2017-04-15T10:01:47.684Z,98.63
2017-04-15T10:03:00.382Z,99.3
2017-04-15T10:04:13.278Z,99.01
2017-04-15T10:05:25.925Z,98.44
2017-04-15T10:06:38.751Z,98.24
2017-04-15T10:07:51.574Z,98.34
2017-04-15T10:09:04.391Z,98.24
2017-04-15T10:10:17.509Z,98.63
2017-04-15T10:11:30.334Z,97.57
2017-04-15T10:12:43.159Z,97.86
2017-04-15T10:13:55.982Z,97.76
2017-04-15T10:15:08.805Z,97.96
2017-04-15T10:16:21.830Z,97.72
2017-04-15T10:17:34.661Z,97.96
2017-04-15T10:18:47.508Z,97.81
2017-04-15T10:20:00.331Z,97.72
2017-04-15T10:21:13.368Z,97.24
2017-04-15T10:22:26.191Z,97.42
2017-04-15T10:23:39.013Z,97.52
2017-04-15T10:24:51.837Z,97.62
2017-04-15T10:26:04.656Z,97.24
2017-04-15T10:27:17.486Z,97.52
2017-04-15T10:28:30.308Z,97.24
2017-04-15T10:29:43.142Z,97.14
2017-04-15T10:30:55.968Z,97.33
2017-04-15T10:32:07.822Z,97.62
2017-04-15T10:33:20.649Z,97.24
2017-04-15T10:34:33.471Z,96.75
2017-04-15T10:35:46.300Z,96.94
2017-04-15T10:36:59.130Z,96.51
2017-04-15T10:38:11.671Z,96.08
2017-04-15T10:39:24.810Z,96.32
2017-04-15T10:40:37.145Z,96.22
2017-04-15T10:41:49.965Z,95.64
2017-04-15T10:43:02.603Z,95.55
2017-04-15T10:44:15.431Z,95.55
2017-04-15T10:45:28.259Z,95.84
2017-04-15T10:46:41.088Z,95.26
2017-04-15T10:47:53.909Z,95.84
2017-04-15T10:49:06.743Z,95.36
2017-04-15T10:50:19.576Z,95.84
2017-04-15T10:51:32.404Z,95.45
2017-04-15T10:52:45.232Z,94.59
2017-04-15T10:53:58.255Z,94.59
2017-04-15T10:55:10.589Z,95.16
2017-04-15T10:56:23.418Z,94.63
2017-04-15T10:57:36.279Z,94.2
2017-04-15T10:58:49.166Z,94.1
2017-04-15T11:00:01.997Z,94.15
2017-04-15T11:01:14.337Z,94.54
2017-04-15T11:02:27.165Z,94.54
2017-04-15T11:03:39.993Z,93.76
2017-04-15T11:04:53.023Z,94.15
2017-04-15T11:06:05.854Z,93.66
2017-04-15T11:07:18.676Z,94.24
2017-04-15T11:08:31.506Z,93.57
2017-04-15T11:09:43.871Z,93.57
2017-04-15T11:10:56.912Z,93.76
2017-04-15T11:12:09.751Z,93.48
2017-04-15T11:13:22.595Z,93.66
2017-04-15T11:14:35.420Z,93.66
2017-04-15T11:15:48.471Z,92.9
2017-04-15T11:17:01.532Z,92.9
2017-04-15T11:18:14.356Z,92.99
2017-04-15T11:19:27.191Z,92.13
2017-04-15T11:20:40.018Z,92.71
2017-04-15T11:21:52.362Z,92.51
2017-04-15T11:23:05.183Z,92.51
2017-04-15T11:24:17.524Z,92.32
2017-04-15T11:25:29.864Z,92.66
2017-04-15T11:26:42.686Z,92.56
2017-04-15T11:27:55.510Z,92.32
2017-04-15T11:29:08.339Z,92.8
2017-04-15T11:30:21.174Z,92.41
2017-04-15T11:31:33.997Z,92.51
2017-04-15T11:32:46.821Z,92.61
2017-04-15T11:33:59.648Z,92.32
2017-04-15T11:35:12.120Z,92.71
2017-04-15T11:36:25.097Z,92.41
2017-04-15T11:37:38.268Z,92.41
2017-04-15T11:38:51.093Z,92.03
2017-04-15T11:40:03.930Z,92.13
2017-04-15T11:41:16.756Z,92.41
2017-04-15T11:42:29.118Z,92.51
2017-04-15T11:43:42.152Z,92.41
2017-04-15T11:44:55.006Z,91.3
2017-04-15T11:46:07.364Z,91.2
2017-04-15T11:47:20.186Z,90.82
2017-04-15T11:48:33.315Z,91.2
2017-04-15T11:49:46.155Z,91.4
2017-04-15T11:50:58.500Z,89.76
2017-04-15T11:52:11.326Z,90.72
2017-04-15T11:53:24.161Z,90.63
2017-04-15T11:54:37.053Z,90.44
2017-04-15T11:55:49.891Z,90.09
2017-04-15T11:57:02.728Z,89.42
2017-04-15T11:58:14.103Z,88.93
2017-04-15T11:59:26.957Z,89.75
2017-04-15T12:00:39.803Z,88.79
2017-04-15T12:01:52.657Z,87.53
2017-04-15T12:03:05.511Z,86.57
2017-04-15T12:04:17.968Z,86.47
2017-04-15T12:05:31.074Z,86.61
2017-04-15T12:06:43.990Z,86.42
2017-04-15T12:07:56.945Z,85.16
2017-04-15T12:09:09.866Z,84.63
2017-04-15T12:10:23.144Z,83.08
2017-04-15T12:11:36.345Z,83.08
2017-04-15T12:12:49.663Z,83.18
2017-04-15T12:14:02.727Z,83.22
2017-04-15T12:15:15.748Z,83.41
2017-04-15T12:16:42.360Z,82.25
2017-04-15T12:17:55.466Z,80.55
2017-04-15T12:19:08.615Z,80.59
2017-04-15T12:20:21.162Z,79.91
2017-04-15T12:21:34.212Z,80.2
2017-04-15T12:22:47.053Z,79.82
2017-04-15T12:23:59.406Z,80.3
2017-04-15T12:25:12.459Z,79.33
2017-04-15T12:26:25.104Z,79.57
2017-04-15T12:27:37.455Z,78.79
2017-04-15T12:28:48.821Z,77.82
2017-04-15T12:30:01.652Z,78.69
2017-04-15T12:31:14.484Z,78.5
2017-04-15T12:32:26.828Z,79.37
2017-04-15T12:33:39.660Z,77.34
2017-04-15T12:34:52.493Z,78.31
2017-04-15T12:36:05.326Z,78.41
2017-04-15T12:37:17.669Z,77.47
2017-04-15T12:38:29.528Z,77.47
2017-04-15T12:39:42.366Z,76.89
2017-04-15T12:40:55.206Z,76.6
2017-04-15T12:42:07.552Z,76.56
2017-04-15T12:43:20.582Z,76.95
2017-04-15T12:44:33.153Z,76.66
2017-04-15T12:45:45.985Z,76.41
2017-04-15T12:46:58.814Z,76.7
2017-04-15T12:48:09.706Z,75.38
2017-04-15T12:49:20.611Z,76.21
2017-04-15T12:50:33.490Z,76.79
2017-04-15T12:51:46.323Z,76.46
2017-04-15T12:52:59.193Z,76.21
2017-04-15T12:54:11.567Z,74.28
2017-04-15T12:55:24.433Z,74.7
2017-04-15T12:56:36.887Z,74.7
2017-04-15T12:57:49.414Z,74.12
2017-04-15T12:59:02.452Z,72.8
2017-04-15T13:00:15.397Z,73.48
2017-04-15T13:01:28.322Z,73.73
2017-04-15T13:02:41.351Z,73.83
2017-04-15T13:03:54.644Z,73.38
2017-04-15T13:05:07.600Z,72.51
2017-04-15T13:06:20.508Z,73.67
2017-04-15T13:07:32.943Z,74.41
2017-04-15T13:08:45.938Z,74.6
2017-04-15T13:09:58.932Z,74.6
2017-04-15T13:11:11.839Z,73.09
2017-04-15T13:12:24.208Z,71.86
2017-04-15T13:13:37.173Z,71.38
2017-04-15T13:14:50.102Z,72.39
2017-04-15T13:16:02.793Z,72.55
2017-04-15T13:17:15.014Z,71.48
2017-04-15T13:18:27.712Z,71.19
2017-04-15T13:19:40.407Z,71.86
2017-04-15T13:20:53.101Z,72.45
2017-04-15T13:22:05.319Z,72.45
2017-04-15T13:23:18.021Z,71.48
2017-04-15T13:24:30.976Z,72.83
2017-04-15T13:25:43.685Z,72.55
2017-04-15T13:26:56.574Z,72.35
2017-04-15T13:28:08.799Z,70.45
2017-04-15T13:29:21.027Z,70.35
2017-04-15T13:30:33.253Z,69.96
2017-04-15T13:31:45.970Z,68.99
2017-04-15T13:32:58.671Z,68.73
2017-04-15T13:34:11.401Z,68.67
2017-04-15T13:35:24.111Z,68.48
2017-04-15T13:36:36.805Z,69.25
2017-04-15T13:37:49.241Z,69.15
2017-04-15T13:39:01.942Z,68.35
2017-04-15T13:40:14.649Z,68.54
2017-04-15T13:41:27.560Z,68.18
2017-04-15T13:42:40.565Z,68.35
2017-04-15T13:43:53.292Z,69.7
2017-04-15T13:45:06.029Z,70.83
2017-04-15T13:46:18.727Z,71.58
2017-04-15T13:47:30.948Z,72.12
2017-04-15T13:48:43.648Z,71.58
2017-04-15T13:49:55.868Z,70.7
2017-04-15T13:51:08.092Z,70.31
2017-04-15T13:52:20.785Z,71.77
2017-04-15T13:53:33.673Z,71.77
2017-04-15T13:54:46.360Z,71.77
2017-04-15T13:55:59.059Z,71.58
2017-04-15T13:57:11.749Z,71.58
2017-04-15T13:58:24.446Z,71.48
2017-04-15T13:59:37.336Z,72.41
2017-04-15T14:00:50.202Z,72.89
2017-04-15T14:02:02.893Z,72.02
2017-04-15T14:03:15.586Z,72.45
2017-04-15T14:04:28.275Z,71.38
2017-04-15T14:05:40.493Z,70.7
2017-04-15T14:06:53.186Z,70.73
2017-04-15T14:08:05.875Z,71.32
2017-04-15T14:09:18.570Z,71.03
2017-04-15T14:10:45.355Z,71.96
2017-04-15T14:11:58.046Z,72.99
2017-04-15T14:13:10.886Z,73.28
2017-04-15T14:14:23.600Z,72.31
2017-04-15T14:15:36.296Z,72.16
2017-04-15T14:16:48.514Z,71.48
2017-04-15T14:18:01.204Z,72.64
2017-04-15T14:19:13.896Z,71.67
2017-04-15T14:20:26.888Z,71.28
2017-04-15T14:21:39.582Z,71.67
2017-04-15T14:22:52.289Z,71.86
2017-04-15T14:24:04.990Z,71.67
2017-04-15T14:25:17.679Z,71.38
2017-04-15T14:26:30.661Z,71.48
2017-04-15T14:27:43.361Z,72.41
2017-04-15T14:28:56.057Z,72.8
2017-04-15T14:30:08.288Z,72.89
2017-04-15T14:31:21.285Z,73.77
2017-04-15T14:32:33.979Z,73.67
2017-04-15T14:33:46.712Z,74.35
2017-04-15T14:34:59.548Z,73.58
2017-04-15T14:36:12.382Z,73.48
2017-04-15T14:37:25.518Z,73.58
2017-04-15T14:38:38.352Z,73.77
2017-04-15T14:39:51.190Z,73.58
2017-04-15T14:41:04.018Z,72.71
2017-04-15T14:42:16.855Z,71.44
2017-04-15T14:43:29.197Z,72.51
2017-04-15T14:44:42.036Z,71.77
2017-04-15T14:45:54.868Z,70.99
2017-04-15T14:47:07.770Z,70.7
2017-04-15T14:48:20.593Z,70.41
2017-04-15T14:49:33.424Z,70.35
2017-04-15T14:50:45.774Z,69.76
2017-04-15T14:51:58.601Z,69.57
2017-04-15T14:53:11.428Z,69.38
2017-04-15T14:54:24.258Z,69.28
2017-04-15T14:55:37.089Z,69.7
2017-04-15T14:56:49.927Z,69.76
2017-04-15T14:58:02.755Z,69.18
2017-04-15T14:59:15.101Z,69.57
2017-04-15T15:00:27.932Z,69.28
2017-04-15T15:01:40.276Z,70.12
2017-04-15T15:02:52.619Z,69.93
2017-04-15T15:04:05.166Z,69.93
2017-04-15T15:05:18.221Z,69.64
2017-04-15T15:06:30.588Z,70.21
2017-04-15T15:07:42.937Z,69.93
2017-04-15T15:08:55.777Z,70.51
2017-04-15T15:10:08.324Z,70.03
2017-04-15T15:11:21.153Z,70.31
2017-04-15T15:12:33.979Z,70.7
2017-04-15T15:13:46.815Z,70.7
2017-04-15T15:14:59.653Z,71.19
2017-04-15T15:16:12.480Z,71.44
2017-04-15T15:17:25.304Z,72.22
2017-04-15T15:18:38.150Z,72.02
2017-04-15T15:19:50.980Z,72.51
2017-04-15T15:21:04.015Z,72.89
2017-04-15T15:22:16.966Z,72.89
2017-04-15T15:23:29.809Z,72.02
2017-04-15T15:24:42.653Z,72.02
2017-04-15T15:25:55.683Z,71.44
2017-04-15T15:27:08.507Z,72.28
2017-04-15T15:28:21.343Z,72.86
2017-04-15T15:29:34.181Z,72.77
2017-04-15T15:30:47.015Z,72.83
2017-04-15T15:31:59.852Z,72.73
2017-04-15T15:33:12.686Z,72.77
2017-04-15T15:34:25.522Z,72.96
2017-04-15T15:35:38.357Z,72.77
2017-04-15T15:36:50.897Z,72.38
2017-04-15T15:38:03.727Z,72.86
2017-04-15T15:39:16.556Z,71.7
2017-04-15T15:40:29.386Z,71.7
2017-04-15T15:41:42.226Z,72.38